Terminal Aerodrome Forecast
Issued by NWS

Home | Current Version | Previous Version | Text Only | Print | Product List | Glossary On
Versions: 1 2 3 4 5 6 7 8 9 10 11 12 13 14 15 16
000
FTUS41 KPBZ 041121
TAFZZV
TAF
KZZV 041121Z 0412/0512 10003KT P6SM BKN080
     FM042300 16004KT P6SM VCSH OVC050
     FM050100 14004KT 5SM -SHRA OVC025
     FM050600 27008KT P6SM VCSH SCT006 BKN012=

USA.gov is the U.S. government's official web portal to all federal, state and local government web resources and services.